createdAt,value
2023-04-26T00:00:14.030Z,93753.00
2023-04-26T00:04:18.968Z,93770.00
2023-04-26T00:08:25.523Z,93774.00
2023-04-26T00:12:31.548Z,93774.00
2023-04-26T00:16:36.258Z,93754.00
2023-04-26T00:20:42.468Z,93766.00
2023-04-26T00:24:53.094Z,93768.00
2023-04-26T00:28:59.993Z,93760.00
2023-04-26T00:33:04.902Z,93766.00
2023-04-26T00:37:09.296Z,93786.00
2023-04-26T00:41:15.096Z,93775.00
2023-04-26T00:45:23.323Z,93794.00
2023-04-26T00:49:38.696Z,93788.00
2023-04-26T00:53:43.180Z,93797.00
2023-04-26T00:57:49.035Z,93786.00
2023-04-26T01:01:52.624Z,93773.00
2023-04-26T01:05:57.911Z,93796.00
2023-04-26T01:10:03.721Z,93793.00
2023-04-26T01:14:09.737Z,93778.00
2023-04-26T01:18:16.413Z,93781.00
2023-04-26T01:22:22.949Z,93778.00
2023-04-26T01:26:29.240Z,93792.00
2023-04-26T01:30:35.902Z,93779.00
2023-04-26T01:34:41.320Z,93778.00
2023-04-26T01:38:46.088Z,93801.00
2023-04-26T01:42:52.895Z,93784.00
2023-04-26T01:47:00.184Z,93786.00
2023-04-26T01:51:05.019Z,93796.00
2023-04-26T01:55:12.926Z,93779.00
2023-04-26T01:59:21.296Z,93805.00
2023-04-26T02:03:27.833Z,93797.00
2023-04-26T02:07:34.285Z,93786.00
2023-04-26T02:11:37.886Z,93804.00
2023-04-26T02:15:50.164Z,93806.00
2023-04-26T02:20:00.268Z,93795.00
2023-04-26T02:24:06.228Z,93791.00
2023-04-26T02:28:12.489Z,93810.00
2023-04-26T02:32:18.336Z,93785.00
2023-04-26T02:36:24.950Z,93778.00
2023-04-26T02:40:32.370Z,93769.00
2023-04-26T02:44:36.368Z,93781.00
2023-04-26T02:48:43.735Z,93800.00
2023-04-26T02:52:49.319Z,93775.00
2023-04-26T02:56:57.859Z,93785.00
2023-04-26T03:01:05.635Z,93777.00
2023-04-26T03:05:16.097Z,93797.00
2023-04-26T03:09:24.152Z,93787.00
2023-04-26T03:13:32.314Z,93785.00
2023-04-26T03:17:37.740Z,93789.00
2023-04-26T03:21:45.334Z,93781.00
2023-04-26T03:25:51.982Z,93781.00
2023-04-26T03:29:58.397Z,93794.00
2023-04-26T03:34:04.085Z,93802.00
2023-04-26T03:38:10.245Z,93811.00
2023-04-26T03:42:15.764Z,93791.00
2023-04-26T03:46:20.265Z,93799.00
2023-04-26T03:50:26.495Z,93799.00
2023-04-26T03:54:35.533Z,93819.00
2023-04-26T03:58:40.488Z,93796.00
2023-04-26T04:02:46.255Z,93801.00
2023-04-26T04:07:05.038Z,93805.00
2023-04-26T04:11:11.771Z,93824.00
2023-04-26T04:15:18.248Z,93798.00
2023-04-26T04:19:23.925Z,93810.00
2023-04-26T04:23:28.420Z,93813.00
2023-04-26T04:27:35.630Z,93811.00
2023-04-26T04:31:42.410Z,93809.00
2023-04-26T04:35:48.552Z,93816.00
2023-04-26T04:39:52.585Z,93810.00
2023-04-26T04:43:58.678Z,93800.00
2023-04-26T04:48:05.339Z,93812.00
2023-04-26T04:52:09.484Z,93833.00
2023-04-26T04:56:14.715Z,93842.00
2023-04-26T05:00:23.045Z,93839.00
2023-04-26T05:04:34.565Z,93840.00
2023-04-26T05:08:40.817Z,93843.00
2023-04-26T05:12:46.676Z,93847.00
2023-04-26T05:16:52.156Z,93855.00
2023-04-26T05:20:55.958Z,93861.00
2023-04-26T05:24:59.572Z,93874.00
2023-04-26T05:29:03.928Z,93872.00
2023-04-26T05:33:19.289Z,93877.00
2023-04-26T05:37:31.938Z,93892.00
2023-04-26T05:41:35.473Z,93901.00
2023-04-26T05:45:39.864Z,93945.00
2023-04-26T05:49:48.219Z,93954.00
2023-04-26T05:53:52.641Z,93952.00
2023-04-26T05:57:57.248Z,93958.00
2023-04-26T06:02:02.047Z,93950.00
2023-04-26T06:06:08.155Z,93954.00
2023-04-26T06:10:15.309Z,93961.00
2023-04-26T06:14:29.478Z,93973.00
2023-04-26T06:18:38.011Z,93978.00
2023-04-26T06:22:46.292Z,93965.00
2023-04-26T06:26:51.912Z,93967.00
2023-04-26T06:30:57.112Z,93952.00
2023-04-26T06:35:05.456Z,93966.00
2023-04-26T06:39:12.988Z,93963.00
2023-04-26T06:43:22.770Z,93980.00
2023-04-26T06:47:43.537Z,93965.00
2023-04-26T06:51:47.550Z,93968.00
2023-04-26T06:55:57.614Z,93956.00
2023-04-26T07:00:02.226Z,93953.00
2023-04-26T07:04:08.474Z,93963.00
2023-04-26T07:08:12.954Z,93953.00
2023-04-26T07:12:19.168Z,93967.00
2023-04-26T07:16:23.395Z,93980.00
2023-04-26T07:20:28.361Z,93971.00
2023-04-26T07:24:33.126Z,93968.00
2023-04-26T07:28:38.527Z,93976.00
2023-04-26T07:32:42.395Z,93956.00
2023-04-26T07:36:47.320Z,93982.00
2023-04-26T07:40:52.834Z,93973.00
2023-04-26T07:44:58.428Z,93972.00
2023-04-26T07:49:02.235Z,93976.00
2023-04-26T07:53:06.559Z,93968.00
2023-04-26T07:57:10.461Z,93987.00
2023-04-26T08:01:16.896Z,93985.00
2023-04-26T08:05:21.617Z,93978.00
2023-04-26T08:09:28.958Z,93976.00
2023-04-26T08:13:32.998Z,94006.00
2023-04-26T08:17:40.116Z,93979.00
2023-04-26T08:21:44.265Z,94004.00
2023-04-26T08:25:49.881Z,94006.00
2023-04-26T08:29:54.452Z,94014.00
2023-04-26T08:34:00.072Z,93987.00
2023-04-26T08:38:04.830Z,94002.00
2023-04-26T08:42:15.658Z,94001.00
2023-04-26T08:46:22.026Z,94009.00
2023-04-26T08:50:29.006Z,94006.00
2023-04-26T08:54:34.835Z,94017.00
2023-04-26T08:58:42.069Z,93995.00
2023-04-26T09:02:53.572Z,94020.00
2023-04-26T09:07:02.865Z,93989.00
2023-04-26T09:11:06.814Z,93998.00
2023-04-26T09:15:12.305Z,93973.00
2023-04-26T09:19:16.286Z,93984.00
2023-04-26T09:23:21.699Z,93998.00
2023-04-26T09:27:35.210Z,93997.00
2023-04-26T09:31:41.230Z,93985.00
2023-04-26T09:35:45.888Z,93990.00
2023-04-26T09:39:54.286Z,93981.00
2023-04-26T09:43:59.441Z,93984.00
2023-04-26T09:48:17.191Z,93966.00
2023-04-26T09:52:22.086Z,93968.00
2023-04-26T09:56:27.570Z,93967.00
2023-04-26T10:00:34.221Z,93954.00
2023-04-26T10:04:41.428Z,93962.00
2023-04-26T10:08:45.868Z,93968.00
2023-04-26T10:12:52.933Z,93978.00
2023-04-26T10:16:59.246Z,93972.00
2023-04-26T10:21:09.649Z,93958.00
2023-04-26T10:25:14.049Z,93968.00
2023-04-26T10:29:21.100Z,93954.00
2023-04-26T10:33:27.828Z,93966.00
2023-04-26T10:37:32.058Z,93929.00
2023-04-26T10:41:40.141Z,93945.00
2023-04-26T10:45:46.573Z,93943.00
2023-04-26T10:49:50.532Z,93960.00
2023-04-26T10:54:04.277Z,93953.00
2023-04-26T10:58:28.504Z,93956.00
2023-04-26T11:03:36.815Z,93959.00
2023-04-26T11:07:44.191Z,93952.00
2023-04-26T11:11:54.692Z,93957.00
2023-04-26T11:16:04.522Z,93956.00
2023-04-26T11:20:18.886Z,93943.00
2023-04-26T11:24:27.712Z,93943.00
2023-04-26T11:28:34.098Z,93932.00
2023-04-26T11:32:39.278Z,93931.00
2023-04-26T11:36:47.060Z,93935.00
2023-04-26T11:40:56.749Z,93939.00
2023-04-26T11:45:02.205Z,93931.00
2023-04-26T11:49:08.578Z,93937.00
2023-04-26T11:53:14.883Z,93935.00
2023-04-26T11:57:19.988Z,93923.00
2023-04-26T12:01:26.745Z,93940.00
2023-04-26T12:05:32.268Z,93938.00
2023-04-26T12:09:43.831Z,93944.00
2023-04-26T12:13:48.766Z,93942.00
2023-04-26T12:17:57.283Z,93935.00
2023-04-26T12:22:04.321Z,93927.00
2023-04-26T12:26:11.315Z,93948.00
2023-04-26T12:30:15.325Z,93944.00
2023-04-26T12:34:20.472Z,93943.00
2023-04-26T12:38:24.023Z,93943.00
2023-04-26T12:42:29.631Z,93949.00
2023-04-26T12:46:33.478Z,93943.00
2023-04-26T12:50:37.679Z,93930.00
2023-04-26T12:54:41.393Z,93944.00
2023-04-26T12:58:48.523Z,93950.00
2023-04-26T13:02:52.249Z,93933.00
2023-04-26T13:06:55.973Z,93956.00
2023-04-26T13:11:00.755Z,93954.00
2023-04-26T13:15:07.193Z,93948.00
2023-04-26T13:19:11.319Z,93943.00
2023-04-26T13:23:16.178Z,93938.00
2023-04-26T13:27:20.098Z,93934.00
2023-04-26T13:31:26.968Z,93960.00
2023-04-26T13:35:30.938Z,93957.00
2023-04-26T13:39:34.826Z,93952.00
2023-04-26T13:43:38.892Z,93944.00
2023-04-26T13:47:44.499Z,93956.00
2023-04-26T13:51:48.400Z,93950.00
2023-04-26T13:55:52.258Z,93962.00
2023-04-26T13:59:56.354Z,93965.00
2023-04-26T14:04:01.608Z,93969.00
2023-04-26T14:08:06.207Z,93956.00
2023-04-26T14:12:10.211Z,93942.00
2023-04-26T14:16:13.904Z,93941.00
2023-04-26T14:20:19.954Z,93946.00
2023-04-26T14:24:23.920Z,93950.00
2023-04-26T14:28:27.584Z,93958.00
2023-04-26T14:32:31.441Z,93967.00
2023-04-26T14:36:37.250Z,93957.00
2023-04-26T14:40:41.821Z,93966.00
2023-04-26T14:44:47.935Z,93939.00
2023-04-26T14:48:52.784Z,93944.00
2023-04-26T14:53:00.045Z,93961.00
2023-04-26T14:57:05.602Z,93949.00
2023-04-26T15:01:09.706Z,93948.00
2023-04-26T15:05:15.611Z,93961.00
2023-04-26T15:09:21.808Z,93973.00
2023-04-26T15:13:25.727Z,93961.00
2023-04-26T15:17:29.774Z,93950.00
2023-04-26T15:21:36.016Z,93960.00
2023-04-26T15:25:42.246Z,93960.00
2023-04-26T15:29:46.260Z,93968.00
2023-04-26T15:33:49.999Z,93960.00
2023-04-26T15:37:54.318Z,93964.00
2023-04-26T15:42:00.563Z,93958.00
2023-04-26T15:46:05.334Z,93954.00
2023-04-26T15:50:10.046Z,93972.00
2023-04-26T15:54:13.832Z,93968.00
2023-04-26T15:58:19.151Z,93975.00
2023-04-26T16:02:23.249Z,93977.00
2023-04-26T16:06:27.662Z,93968.00
2023-04-26T16:10:31.536Z,93964.00
2023-04-26T16:14:40.166Z,93969.00
2023-04-26T16:18:44.511Z,93954.00
2023-04-26T16:22:48.430Z,93968.00
2023-04-26T16:26:56.160Z,93976.00
2023-04-26T16:31:02.253Z,93945.00
2023-04-26T16:35:06.865Z,93964.00
2023-04-26T16:39:14.951Z,93956.00
2023-04-26T16:43:20.756Z,93961.00
2023-04-26T16:47:27.954Z,93966.00
2023-04-26T16:51:32.713Z,93985.00
2023-04-26T16:55:36.337Z,93979.00
2023-04-26T16:59:41.306Z,93987.00
2023-04-26T17:03:46.840Z,93998.00
2023-04-26T17:08:01.436Z,93987.00
2023-04-26T17:12:07.546Z,93974.00
2023-04-26T17:16:13.280Z,93979.00
2023-04-26T17:20:21.759Z,94008.00
2023-04-26T17:24:27.186Z,93999.00
2023-04-26T17:28:31.660Z,94003.00
2023-04-26T17:32:38.632Z,94000.00
2023-04-26T17:36:46.408Z,94005.00
2023-04-26T17:40:56.992Z,94003.00
2023-04-26T17:45:02.724Z,94004.00
2023-04-26T17:49:07.366Z,94013.00
2023-04-26T17:53:14.699Z,94011.00
2023-04-26T17:57:20.524Z,94034.00
2023-04-26T18:01:24.510Z,94031.00
2023-04-26T18:05:28.290Z,94030.00
2023-04-26T18:09:34.005Z,94022.00
2023-04-26T18:13:39.752Z,94047.00
2023-04-26T18:17:45.070Z,94053.00
2023-04-26T18:21:52.617Z,94048.00
2023-04-26T18:25:59.353Z,94030.00
2023-04-26T18:30:06.166Z,94032.00
2023-04-26T18:34:11.177Z,94059.00
2023-04-26T18:38:15.326Z,94042.00
2023-04-26T18:42:21.884Z,94047.00
2023-04-26T18:46:26.637Z,94080.00
2023-04-26T18:50:32.351Z,94059.00
2023-04-26T18:54:36.763Z,94071.00
2023-04-26T18:58:42.605Z,94087.00
2023-04-26T19:02:46.420Z,94067.00
2023-04-26T19:06:51.691Z,94076.00
2023-04-26T19:10:56.996Z,94112.00
2023-04-26T19:15:04.490Z,94091.00
2023-04-26T19:19:11.311Z,94075.00
2023-04-26T19:23:22.250Z,94097.00
2023-04-26T19:27:27.878Z,94095.00
2023-04-26T19:31:34.069Z,94091.00
2023-04-26T19:35:41.919Z,94112.00
2023-04-26T19:39:50.877Z,94091.00
2023-04-26T19:43:59.271Z,94111.00
2023-04-26T19:48:06.543Z,94085.00
2023-04-26T19:52:14.160Z,94104.00
2023-04-26T19:56:18.903Z,94095.00
2023-04-26T20:00:24.144Z,94112.00
2023-04-26T20:04:33.613Z,94104.00
2023-04-26T20:08:40.248Z,94096.00
2023-04-26T20:12:44.079Z,94105.00
2023-04-26T20:16:48.151Z,94106.00
2023-04-26T20:20:54.554Z,94094.00
2023-04-26T20:24:58.819Z,94101.00
2023-04-26T20:29:05.172Z,94112.00
2023-04-26T20:33:10.770Z,94103.00
2023-04-26T20:37:17.884Z,94129.00
2023-04-26T20:41:24.978Z,94106.00
2023-04-26T20:45:31.424Z,94122.00
2023-04-26T20:49:36.846Z,94124.00
2023-04-26T20:53:46.357Z,94103.00
2023-04-26T20:57:50.411Z,94134.00
2023-04-26T21:01:57.542Z,94127.00
2023-04-26T21:06:02.847Z,94122.00
2023-04-26T21:10:10.404Z,94132.00
2023-04-26T21:14:15.392Z,94144.00
2023-04-26T21:18:19.244Z,94121.00
2023-04-26T21:22:23.259Z,94111.00
2023-04-26T21:26:29.862Z,94114.00
2023-04-26T21:30:33.637Z,94148.00
2023-04-26T21:34:39.275Z,94132.00
2023-04-26T21:38:43.701Z,94147.00
2023-04-26T21:43:04.070Z,94156.00
2023-04-26T21:47:10.887Z,94161.00
2023-04-26T21:51:29.705Z,94139.00
2023-04-26T21:55:40.432Z,94142.00
2023-04-26T21:59:48.295Z,94151.00
2023-04-26T22:03:55.916Z,94148.00
2023-04-26T22:08:04.852Z,94141.00
2023-04-26T22:12:16.284Z,94185.00
2023-04-26T22:16:32.763Z,94168.00
2023-04-26T22:20:37.378Z,94154.00
2023-04-26T22:24:43.972Z,94185.00
2023-04-26T22:28:50.227Z,94162.00
2023-04-26T22:33:00.317Z,94167.00
2023-04-26T22:37:19.797Z,94170.00
2023-04-26T22:41:26.910Z,94159.00
2023-04-26T22:45:31.576Z,94171.00
2023-04-26T22:49:38.071Z,94197.00
2023-04-26T22:53:43.349Z,94202.00
2023-04-26T22:57:50.063Z,94173.00
2023-04-26T23:02:00.022Z,94208.00
2023-04-26T23:06:09.424Z,94206.00
2023-04-26T23:10:16.084Z,94199.00
2023-04-26T23:14:24.262Z,94212.00
2023-04-26T23:18:31.379Z,94208.00
2023-04-26T23:22:39.223Z,94204.00
2023-04-26T23:26:43.942Z,94233.00
2023-04-26T23:30:49.876Z,94214.00
2023-04-26T23:34:54.733Z,94229.00
2023-04-26T23:39:00.861Z,94197.00
2023-04-26T23:43:07.023Z,94190.00
2023-04-26T23:47:15.699Z,94206.00
2023-04-26T23:51:24.311Z,94225.00
2023-04-26T23:55:34.757Z,94214.00
2023-04-26T23:59:39.909Z,94204.00
